Time;durP1;ratioP1;P1;durP2;ratioP2;P2;SDS_P1;SDS_P2;PMS_P1;PMS_P2;Temp;Humidity;BMP_temperature;BMP_pressure;BME280_temperature;BME280_humidity;BME280_pressure;Samples;Min_cycle;Max_cycle;Signal;HPM_P1;HPM_P2
2021/06/07 00:02:10;;;;;;;5.75;4.40;;;14.50;73.40;13.70;102356.00;;;;4972333;28;20046;-72
2021/06/07 00:04:36;;;;;;;6.30;4.50;;;14.60;73.50;13.70;102351.00;;;;4973234;28;20061;-73
2021/06/07 00:07:06;;;;;;;5.82;4.63;;;14.50;73.40;13.70;102366.00;;;;4970465;28;20046;-71
2021/06/07 00:09:33;;;;;;;9.77;4.75;;;14.50;73.70;13.70;102358.00;;;;4987649;28;20053;-71
2021/06/07 00:12:06;;;;;;;7.45;4.72;;;14.50;73.60;13.60;102355.00;;;;5008074;28;20138;-71
2021/06/07 00:14:34;;;;;;;7.30;4.72;;;14.40;73.70;13.60;102367.00;;;;4994724;28;20051;-71
2021/06/07 00:17:02;;;;;;;8.38;4.93;;;14.50;74.00;13.60;102367.00;;;;4984197;28;20050;-72
2021/06/07 00:19:31;;;;;;;8.40;4.90;;;14.40;73.90;13.60;102365.00;;;;4989593;28;20073;-72
2021/06/07 00:21:59;;;;;;;6.13;3.90;;;14.40;74.00;13.60;102351.00;;;;4988824;28;20049;-72
2021/06/07 00:24:25;;;;;;;6.68;4.90;;;14.40;74.20;13.60;102352.00;;;;4987778;28;20080;-73
2021/06/07 00:26:52;;;;;;;7.10;4.70;;;14.40;74.20;13.60;102359.00;;;;4990961;28;20762;-72
2021/06/07 00:29:18;;;;;;;9.10;5.07;;;14.40;74.30;13.50;102352.00;;;;4994181;28;20208;-72
2021/06/07 00:31:45;;;;;;;7.93;5.13;;;14.30;74.30;13.50;102361.00;;;;4995408;28;20038;-73
2021/06/07 00:34:11;;;;;;;7.37;5.00;;;14.30;74.50;13.50;102361.00;;;;4992094;28;20041;-73
2021/06/07 00:36:38;;;;;;;8.95;5.22;;;14.40;74.70;13.50;102357.00;;;;4987564;28;20125;-72
2021/06/07 00:39:09;;;;;;;8.52;4.95;;;14.30;73.60;13.50;102346.00;;;;4979146;28;20060;-71
2021/06/07 00:41:35;;;;;;;9.57;5.60;;;14.30;74.70;13.50;102353.00;;;;4976274;28;20045;-72
2021/06/07 00:44:08;;;;;;;7.95;4.97;;;14.30;74.80;13.40;102361.00;;;;4978392;28;20099;-74
2021/06/07 00:46:34;;;;;;;6.88;5.15;;;14.30;74.80;13.40;102351.00;;;;4996578;28;20416;-72
2021/06/07 00:49:01;;;;;;;9.03;5.63;;;14.20;74.90;13.40;102349.00;;;;5016143;28;20045;-72
2021/06/07 00:51:27;;;;;;;12.10;5.82;;;14.20;75.30;13.40;102356.00;;;;4993081;28;20040;-72
2021/06/07 00:53:53;;;;;;;9.57;5.93;;;14.20;75.50;13.30;102354.00;;;;5016171;28;20042;-72
2021/06/07 00:56:19;;;;;;;8.73;6.10;;;14.20;75.60;13.30;102353.00;;;;4981441;28;20801;-72
2021/06/07 00:58:50;;;;;;;10.23;6.60;;;14.20;75.80;13.20;102357.00;;;;5015221;28;20049;-72
2021/06/07 01:01:21;;;;;;;10.73;7.10;;;14.10;75.70;13.20;102354.00;;;;5014354;28;20176;-73
2021/06/07 01:03:51;;;;;;;10.38;6.68;;;14.10;75.90;13.20;102357.00;;;;4994785;28;20419;-73
2021/06/07 01:06:18;;;;;;;9.73;6.70;;;14.10;76.00;13.20;102349.00;;;;5013509;28;20064;-71
2021/06/07 01:08:44;;;;;;;9.27;6.70;;;14.00;76.10;13.10;102342.00;;;;4998065;28;20049;-73
2021/06/07 01:11:11;;;;;;;10.50;7.50;;;14.00;76.20;13.10;102342.00;;;;4983161;28;20037;-72
2021/06/07 01:13:38;;;;;;;10.43;6.63;;;14.00;76.40;13.10;102339.00;;;;4994520;28;20630;-74
2021/06/07 01:16:05;;;;;;;8.80;6.35;;;13.90;76.70;13.00;102346.00;;;;5012447;28;20164;-72
2021/06/07 01:18:32;;;;;;;8.55;6.35;;;13.90;76.80;13.00;102339.00;;;;4993950;28;20049;-72
2021/06/07 01:21:13;;;;;;;12.15;6.53;;;13.80;76.80;12.90;102342.00;;;;5012408;28;20045;-72
2021/06/07 01:23:41;;;;;;;13.50;6.80;;;13.80;77.10;12.90;102335.00;;;;4997973;28;20134;-72
2021/06/07 01:26:10;;;;;;;9.93;6.90;;;13.70;77.10;12.80;102331.00;;;;5012310;28;20093;-72
2021/06/07 01:28:37;;;;;;;11.02;7.95;;;13.70;77.40;12.80;102330.00;;;;4961691;28;20064;-72
2021/06/07 01:31:05;;;;;;;12.60;7.80;;;13.70;77.50;12.80;102331.00;;;;4992439;28;20046;-72
2021/06/07 01:33:31;;;;;;;;;;;13.60;77.90;12.60;102329.00;;;;4990164;28;20066;-72
2021/06/07 01:36:01;;;;;;;15.00;8.07;;;13.50;78.50;12.60;102327.00;;;;4990236;28;20380;-72
2021/06/07 01:38:28;;;;;;;11.85;8.45;;;13.50;76.90;12.60;102322.00;;;;4977019;28;20056;-72
2021/06/07 01:40:58;;;;;;;12.95;8.65;;;13.50;77.90;12.60;102329.00;;;;4993288;28;20046;-72
2021/06/07 01:43:27;;;;;;;15.13;9.45;;;13.50;78.20;12.60;102330.00;;;;5002785;28;20752;-72
2021/06/07 01:45:54;;;;;;;15.30;9.80;;;13.40;78.10;12.50;102332.00;;;;4994126;28;20045;-72
2021/06/07 01:48:21;;;;;;;14.35;10.15;;;13.40;77.20;12.50;102329.00;;;;4996220;28;20410;-72
2021/06/07 01:50:49;;;;;;;12.80;9.18;;;13.40;78.30;12.50;102322.00;;;;4998572;28;20038;-73
2021/06/07 01:53:17;;;;;;;12.82;9.20;;;13.30;78.20;12.40;102324.00;;;;4993668;28;20609;-73
2021/06/07 01:55:47;;;;;;;12.45;9.45;;;13.30;78.30;12.40;102324.00;;;;5013736;28;20041;-72
2021/06/07 01:58:15;;;;;;;15.55;9.20;;;13.30;78.60;12.40;102312.00;;;;5011474;28;20042;-72
2021/06/07 02:00:54;;;;;;;13.13;9.38;;;13.30;78.70;12.30;102313.00;;;;4979580;28;20046;-73
2021/06/07 02:03:21;;;;;;;12.95;7.82;;;13.30;78.60;12.40;102316.00;;;;4983773;28;20079;-73
2021/06/07 02:05:52;;;;;;;11.70;7.20;;;13.20;77.50;12.30;102319.00;;;;4972939;28;20049;-73
2021/06/07 02:08:20;;;;;;;10.32;6.40;;;13.20;78.40;12.40;102321.00;;;;4996112;28;20081;-74
2021/06/07 02:10:54;;;;;;;10.27;7.20;;;13.20;78.20;12.40;102324.00;;;;5001199;28;20045;-74
2021/06/07 02:13:22;;;;;;;11.45;7.55;;;13.30;78.50;12.30;102322.00;;;;5014815;28;20099;-73
2021/06/07 02:16:14;;;;;;;10.60;6.47;;;13.20;78.40;12.30;102321.00;;;;5014506;28;20077;-73
2021/06/07 02:18:41;;;;;;;12.52;7.30;;;13.20;78.40;12.30;102323.00;;;;5006306;28;20501;-72
2021/06/07 02:21:09;;;;;;;10.23;7.07;;;13.20;78.40;12.30;102328.00;;;;4995304;28;20133;-73
2021/06/07 02:23:36;;;;;;;13.05;8.32;;;13.10;78.40;12.30;102331.00;;;;4998086;28;20047;-73
2021/06/07 02:26:03;;;;;;;10.48;7.32;;;13.20;78.50;12.20;102329.00;;;;4994501;28;20033;-73
2021/06/07 02:28:29;;;;;;;7.88;5.22;;;13.20;78.70;12.20;102322.00;;;;4994059;28;20045;-72
2021/06/07 02:30:56;;;;;;;10.95;5.95;;;13.10;78.60;12.20;102329.00;;;;5015346;28;20742;-73
2021/06/07 02:33:23;;;;;;;6.97;4.20;;;13.10;78.60;12.20;102324.00;;;;5016433;28;20111;-73
2021/06/07 02:35:49;;;;;;;8.55;5.60;;;13.10;78.10;12.20;102319.00;;;;5016248;28;20729;-73
2021/06/07 02:38:15;;;;;;;8.25;4.43;;;13.00;77.20;12.20;102325.00;;;;4991684;28;20056;-72
2021/06/07 02:40:45;;;;;;;6.68;4.32;;;13.00;77.20;12.10;102318.00;;;;5010227;28;20472;-73
2021/06/07 02:43:11;;;;;;;6.88;3.95;;;13.00;78.00;12.20;102321.00;;;;5012922;28;20044;-72
2021/06/07 02:45:38;;;;;;;7.68;4.00;;;13.00;77.80;12.20;102320.00;;;;5015001;28;20243;-73
2021/06/07 02:48:05;;;;;;;5.20;4.22;;;13.00;78.20;12.20;102325.00;;;;5013101;28;20045;-73
2021/06/07 02:50:36;;;;;;;6.75;4.30;;;13.00;77.90;12.10;102324.00;;;;4978471;28;21398;-72
2021/06/07 02:53:04;;;;;;;7.57;3.97;;;13.00;78.10;12.10;102330.00;;;;4981083;28;20814;-72
2021/06/07 02:55:35;;;;;;;7.20;4.32;;;13.00;78.10;12.00;102331.00;;;;4978706;28;20045;-73
2021/06/07 02:58:01;;;;;;;6.68;4.05;;;13.00;78.20;12.00;102328.00;;;;5010040;28;20118;-73
2021/06/07 03:00:36;;;;;;;5.82;3.95;;;12.90;79.40;11.90;102325.00;;;;4976507;28;20076;-72
2021/06/07 03:03:04;;;;;;;5.72;3.85;;;12.80;78.30;11.80;102329.00;;;;4989541;28;20042;-72
2021/06/07 03:05:31;;;;;;;6.80;4.53;;;12.80;78.50;11.80;102319.00;;;;4989751;28;20100;-73
2021/06/07 03:07:58;;;;;;;10.63;4.60;;;12.80;78.60;11.70;102340.00;;;;4993484;28;20037;-72
2021/06/07 03:10:24;;;;;;;9.45;4.93;;;12.70;78.70;11.70;102331.00;;;;4991542;28;20042;-72
2021/06/07 03:12:51;;;;;;;9.75;4.88;;;12.60;78.70;11.60;102335.00;;;;4997133;28;20045;-72
2021/06/07 03:15:18;;;;;;;9.32;4.90;;;12.60;78.90;11.50;102337.00;;;;4973511;28;20129;-73
2021/06/07 03:17:45;;;;;;;9.82;4.97;;;12.50;79.10;11.50;102350.00;;;;4975783;28;20656;-72
2021/06/07 03:20:15;;;;;;;7.00;4.85;;;12.40;79.10;11.50;102340.00;;;;4959152;28;20785;-72
2021/06/07 03:22:41;;;;;;;6.72;4.10;;;12.40;79.20;11.50;102344.00;;;;4991719;28;20049;-73
2021/06/07 03:25:09;;;;;;;5.33;4.47;;;12.40;79.30;11.40;102344.00;;;;4978229;28;20053;-72
2021/06/07 03:27:36;;;;;;;8.38;4.35;;;12.40;79.30;11.40;102346.00;;;;4976968;28;20084;-72
2021/06/07 03:30:03;;;;;;;;;;;12.30;79.40;11.30;102350.00;;;;4949357;28;20042;-72
2021/06/07 03:32:29;;;;;;;6.28;4.20;;;12.30;79.80;11.30;102352.00;;;;4976066;28;19951;-73
2021/06/07 03:34:55;;;;;;;9.77;4.35;;;12.30;79.40;11.30;102350.00;;;;4993953;28;20112;-73
2021/06/07 03:37:21;;;;;;;7.55;3.97;;;12.30;79.30;11.40;102353.00;;;;4990592;28;20054;-74
2021/06/07 03:39:48;;;;;;;6.43;4.15;;;12.30;78.60;11.30;102355.00;;;;5003126;28;20082;-73
2021/06/07 03:42:14;;;;;;;5.28;4.38;;;12.20;79.10;11.30;102352.00;;;;4981046;28;20034;-73
2021/06/07 03:44:40;;;;;;;7.18;5.03;;;12.30;79.30;11.30;102357.00;;;;4978145;28;20091;-73
2021/06/07 03:47:06;;;;;;;8.52;5.00;;;12.30;80.60;11.30;102355.00;;;;5017729;28;20061;-73
2021/06/07 03:49:32;;;;;;;6.88;4.35;;;12.30;79.40;11.30;102358.00;;;;5001522;28;20045;-73
2021/06/07 03:51:58;;;;;;;10.07;3.90;;;12.20;79.20;11.20;102358.00;;;;5000896;28;20045;-72
2021/06/07 03:54:24;;;;;;;6.57;4.40;;;12.20;79.40;11.20;102354.00;;;;5016823;28;20431;-72
2021/06/07 03:56:50;;;;;;;11.55;4.63;;;12.20;79.60;11.10;102350.00;;;;4983911;28;20053;-73
2021/06/07 03:59:16;;;;;;;7.70;4.22;;;12.10;79.40;11.10;102340.00;;;;5020512;28;20049;-72
2021/06/07 04:01:42;;;;;;;7.30;3.47;;;12.10;79.60;11.00;102345.00;;;;5001545;28;20033;-72
2021/06/07 04:04:08;;;;;;;6.68;3.95;;;12.10;79.60;11.00;102341.00;;;;5002575;28;20056;-72
2021/06/07 04:06:34;;;;;;;5.20;3.15;;;12.00;79.70;11.00;102349.00;;;;4982922;28;20501;-73
2021/06/07 04:09:02;;;;;;;6.95;3.28;;;12.00;79.70;11.00;102351.00;;;;5010470;28;20931;-72
2021/06/07 04:11:29;;;;;;;7.07;3.42;;;12.00;79.80;11.00;102346.00;;;;4999515;28;20540;-72
2021/06/07 04:13:55;;;;;;;5.60;3.15;;;12.00;79.90;11.00;102363.00;;;;4967431;28;20037;-71
2021/06/07 04:16:21;;;;;;;4.90;3.67;;;11.90;79.40;11.00;102358.00;;;;4981581;28;20046;-72
2021/06/07 04:18:47;;;;;;;3.58;2.78;;;11.90;80.00;11.00;102354.00;;;;5017652;28;20042;-72
2021/06/07 04:21:13;;;;;;;5.68;3.40;;;11.90;79.20;11.00;102350.00;;;;5014190;28;20134;-72
2021/06/07 04:23:39;;;;;;;5.07;3.35;;;11.90;79.60;11.00;102357.00;;;;5015385;28;20041;-72
2021/06/07 04:26:05;;;;;;;7.00;4.47;;;12.00;80.20;11.10;102358.00;;;;5022463;28;20048;-73
2021/06/07 04:28:33;;;;;;;7.15;4.40;;;12.40;80.40;11.10;102356.00;;;;5001844;28;20064;-73
2021/06/07 04:31:00;;;;;;;8.25;4.65;;;12.00;80.30;11.00;102352.00;;;;5016194;28;20030;-72
2021/06/07 04:33:26;;;;;;;8.07;5.18;;;12.00;80.40;11.10;102354.00;;;;4981281;28;21045;-73
2021/06/07 04:35:52;;;;;;;8.50;5.97;;;12.00;80.50;11.10;102350.00;;;;4992110;28;20049;-73
2021/06/07 04:38:18;;;;;;;10.90;5.88;;;12.00;80.50;11.20;102354.00;;;;5018824;28;20026;-72
2021/06/07 04:40:44;;;;;;;10.18;5.90;;;12.00;79.60;11.20;102351.00;;;;5016549;28;20049;-71
2021/06/07 04:43:13;;;;;;;10.18;6.10;;;12.10;80.50;11.30;102351.00;;;;5002198;28;20037;-73
2021/06/07 04:45:42;;;;;;;9.80;6.70;;;12.20;80.60;11.40;102349.00;;;;4996179;28;20049;-72
2021/06/07 04:48:10;;;;;;;10.90;6.40;;;12.20;80.50;11.50;102350.00;;;;5016722;28;20545;-72
2021/06/07 04:50:37;;;;;;;12.13;7.22;;;12.30;79.80;11.60;102345.00;;;;4986354;28;20057;-72
2021/06/07 04:53:05;;;;;;;11.68;6.78;;;12.40;80.50;11.70;102346.00;;;;4989670;28;20049;-72
2021/06/07 04:55:43;;;;;;;10.73;6.63;;;12.40;80.30;11.80;102356.00;;;;5022047;28;20057;-72
2021/06/07 04:58:22;;;;;;;9.82;7.00;;;12.50;80.20;11.90;102354.00;;;;5015537;28;20554;-72
2021/06/07 05:00:54;;;;;;;8.93;7.57;;;12.60;80.10;12.00;102349.00;;;;5017885;28;20034;-72
2021/06/07 05:03:20;;;;;;;10.57;7.20;;;12.70;79.50;12.10;102353.00;;;;5015642;28;20041;-73
2021/06/07 05:05:47;;;;;;;10.68;8.13;;;12.90;79.10;12.30;102350.00;;;;5017466;28;20050;-72
2021/06/07 05:08:13;;;;;;;13.48;8.88;;;12.90;79.00;12.40;102352.00;;;;4997262;28;20203;-72
2021/06/07 05:10:40;;;;;;;10.02;7.28;;;13.60;80.10;12.50;102351.00;;;;4994337;28;20108;-73
2021/06/07 05:13:06;;;;;;;10.13;7.30;;;13.10;79.60;12.60;102365.00;;;;4999869;28;20104;-71
2021/06/07 05:15:32;;;;;;;10.93;7.63;;;13.20;79.50;12.70;102364.00;;;;5020081;28;20053;-72
2021/06/07 05:17:59;;;;;;;12.50;8.32;;;14.00;79.90;12.80;102355.00;;;;5004022;28;20073;-71
2021/06/07 05:20:27;;;;;;;12.40;8.70;;;13.40;79.20;12.80;102354.00;;;;4960710;28;20042;-72
2021/06/07 05:22:55;;;;;;;9.73;6.70;;;13.50;79.30;13.00;102363.00;;;;5001095;28;20034;-72
2021/06/07 05:25:22;;;;;;;8.07;4.82;;;13.60;79.30;13.10;102359.00;;;;5000788;28;20068;-71
2021/06/07 05:27:50;;;;;;;7.53;4.07;;;13.70;78.80;13.20;102362.00;;;;4979564;28;20490;-72
2021/06/07 05:30:19;;;;;;;7.22;4.72;;;13.80;78.50;13.30;102360.00;;;;4969206;28;20045;-72
2021/06/07 05:32:45;;;;;;;6.20;3.42;;;13.90;78.40;13.40;102365.00;;;;4983609;28;20038;-73
2021/06/07 05:35:14;;;;;;;7.87;2.83;;;14.00;77.90;13.50;102369.00;;;;4968392;28;20046;-73
2021/06/07 05:37:40;;;;;;;4.47;2.28;;;14.10;77.60;13.70;102369.00;;;;4977298;28;20164;-72
2021/06/07 05:40:09;;;;;;;5.22;1.80;;;14.30;75.60;13.80;102373.00;;;;4982442;28;20052;-73
2021/06/07 05:42:36;;;;;;;6.18;2.03;;;14.30;76.00;14.00;102377.00;;;;4968598;28;20042;-73
2021/06/07 05:45:08;;;;;;;6.20;2.25;;;14.50;76.30;14.20;102376.00;;;;4992970;28;20061;-72
2021/06/07 05:47:36;;;;;;;3.25;1.90;;;14.70;76.00;14.40;102371.00;;;;5004006;28;20037;-72
2021/06/07 05:50:08;;;;;;;4.00;1.83;;;14.80;75.40;14.50;102374.00;;;;4973561;28;20389;-73
2021/06/07 05:52:35;;;;;;;2.40;1.50;;;15.10;73.70;14.70;102369.00;;;;5001860;28;20112;-73
2021/06/07 05:55:02;;;;;;;3.72;1.83;;;15.10;74.60;14.70;102367.00;;;;4999738;28;20401;-73
2021/06/07 05:57:28;;;;;;;;;;;15.10;73.30;14.70;102370.00;;;;4986025;28;20089;-73
2021/06/07 05:59:53;;;;;;;3.88;1.60;;;15.20;71.40;14.90;102374.00;;;;4998276;28;19960;-73
2021/06/07 06:02:19;;;;;;;4.18;1.60;;;15.30;73.60;15.00;102375.00;;;;5015088;28;20458;-73
2021/06/07 06:04:45;;;;;;;4.80;1.42;;;15.50;73.50;15.20;102372.00;;;;5002361;28;20049;-73
2021/06/07 06:07:11;;;;;;;3.13;1.52;;;15.70;70.50;15.30;102377.00;;;;4997907;28;20038;-73
2021/06/07 06:09:37;;;;;;;2.05;1.45;;;15.80;71.50;15.40;102386.00;;;;4994048;28;20103;-73
2021/06/07 06:12:04;;;;;;;2.35;1.30;;;15.80;72.00;15.50;102385.00;;;;4982577;28;20474;-72
2021/06/07 06:14:30;;;;;;;3.28;1.40;;;15.90;71.80;15.60;102389.00;;;;4986943;28;20045;-73
2021/06/07 06:16:56;;;;;;;2.97;1.35;;;16.00;71.50;15.70;102384.00;;;;5018257;28;20045;-73
2021/06/07 06:19:25;;;;;;;5.05;1.50;;;16.20;69.10;15.80;102382.00;;;;5004085;28;20038;-72
2021/06/07 06:21:51;;;;;;;3.30;1.02;;;16.20;71.00;16.00;102371.00;;;;5017467;28;20033;-73
2021/06/07 06:24:18;;;;;;;3.72;1.38;;;16.40;70.50;16.10;102386.00;;;;5005358;28;20042;-73
2021/06/07 06:26:44;;;;;;;2.85;1.45;;;16.50;70.10;16.20;102376.00;;;;5021967;28;20094;-73
2021/06/07 06:29:10;;;;;;;2.83;1.30;;;16.50;70.00;16.30;102378.00;;;;4983687;28;20683;-75
2021/06/07 06:31:36;;;;;;;3.08;1.60;;;16.70;69.40;16.50;102372.00;;;;5017756;28;20033;-73
2021/06/07 06:34:03;;;;;;;3.60;1.70;;;17.00;67.30;16.70;102385.00;;;;5000817;28;20053;-73
2021/06/07 06:36:29;;;;;;;2.47;1.60;;;17.00;69.60;16.80;102376.00;;;;4998449;28;20048;-73
2021/06/07 06:38:56;;;;;;;3.22;1.70;;;17.20;66.10;16.80;102384.00;;;;5008242;28;20231;-73
2021/06/07 06:41:22;;;;;;;2.53;1.20;;;17.20;68.10;16.90;102381.00;;;;5020029;28;20038;-68
2021/06/07 06:43:48;;;;;;;2.63;1.33;;;17.30;68.20;17.00;102386.00;;;;4987735;28;20057;-73
2021/06/07 06:46:14;;;;;;;3.67;1.50;;;17.40;67.50;17.10;102384.00;;;;5009366;28;20041;-72
2021/06/07 06:48:40;;;;;;;5.68;1.67;;;17.40;66.70;17.10;102381.00;;;;4999949;28;20284;-72
2021/06/07 06:51:06;;;;;;;1.92;1.48;;;17.50;66.70;17.20;102388.00;;;;5017894;28;20141;-73
2021/06/07 06:53:32;;;;;;;2.88;1.60;;;17.60;66.80;17.20;102384.00;;;;5009797;28;20100;-74
2021/06/07 06:55:58;;;;;;;3.45;1.75;;;17.60;66.10;17.20;102387.00;;;;4978268;28;20060;-74
2021/06/07 06:58:24;;;;;;;4.22;1.60;;;17.60;66.10;17.20;102389.00;;;;5002326;28;20030;-74
2021/06/07 07:00:50;;;;;;;2.83;1.73;;;17.60;66.50;17.20;102387.00;;;;5006766;28;20068;-73
2021/06/07 07:03:19;;;;;;;1.73;1.10;;;17.70;65.60;17.40;102390.00;;;;4991807;28;20501;-74
2021/06/07 07:05:47;;;;;;;3.55;1.20;;;17.80;58.30;17.40;102375.00;;;;5008040;28;20069;-74
2021/06/07 07:08:14;;;;;;;2.60;1.17;;;17.70;59.70;17.30;102390.00;;;;5000883;28;20064;-74
2021/06/07 07:10:44;;;;;;;4.72;0.98;;;17.50;62.50;17.30;102370.00;;;;5000337;28;20041;-72
2021/06/07 07:13:11;;;;;;;4.20;1.05;;;17.70;62.50;17.30;102372.00;;;;5003761;28;20077;-73
2021/06/07 07:15:38;;;;;;;4.18;1.02;;;17.80;58.30;17.40;102383.00;;;;4991456;28;20050;-74
2021/06/07 07:18:06;;;;;;;1.63;1.00;;;17.80;62.40;17.50;102382.00;;;;5012813;28;20050;-74
2021/06/07 07:20:33;;;;;;;1.13;0.85;;;17.90;62.70;17.60;102377.00;;;;5018778;28;20480;-73
2021/06/07 07:23:00;;;;;;;3.63;1.00;;;17.90;62.20;17.60;102387.00;;;;4998787;28;20041;-73
2021/06/07 07:25:26;;;;;;;2.15;0.82;;;18.00;62.30;17.80;102376.00;;;;5018370;28;20045;-72
2021/06/07 07:27:52;;;;;;;1.87;0.80;;;18.10;62.00;18.00;102388.00;;;;4993439;28;20049;-73
2021/06/07 07:30:22;;;;;;;1.97;1.20;;;18.30;62.10;18.10;102393.00;;;;4982959;28;20042;-74
2021/06/07 07:32:50;;;;;;;3.05;1.00;;;18.50;61.60;18.20;102393.00;;;;5003217;28;20587;-74
2021/06/07 07:35:17;;;;;;;3.33;1.10;;;18.50;61.60;18.40;102385.00;;;;4966828;28;20556;-73
2021/06/07 07:37:43;;;;;;;;;;;18.70;61.40;18.50;102389.00;;;;4986490;28;20120;-74
2021/06/07 07:40:13;;;;;;;2.78;1.20;;;18.90;59.00;18.60;102386.00;;;;4979087;28;19953;-75
2021/06/07 07:42:40;;;;;;;3.38;1.27;;;19.00;61.50;18.80;102394.00;;;;5001726;28;20502;-73
2021/06/07 07:45:08;;;;;;;1.92;1.00;;;19.10;60.40;18.70;102395.00;;;;4985666;28;20575;-73
2021/06/07 07:47:34;;;;;;;2.35;1.10;;;19.10;59.20;18.70;102390.00;;;;4980828;28;20049;-73
2021/06/07 07:50:03;;;;;;;2.38;1.10;;;19.10;55.90;18.70;102388.00;;;;5009960;28;20053;-73
2021/06/07 07:52:29;;;;;;;4.35;1.48;;;19.10;58.30;18.60;102389.00;;;;4996000;28;20065;-74
2021/06/07 07:54:55;;;;;;;2.00;1.00;;;19.00;58.40;18.70;102393.00;;;;5021394;28;20286;-74
2021/06/07 07:57:25;;;;;;;2.38;1.30;;;19.00;59.50;18.80;102393.00;;;;4986618;28;20033;-74
2021/06/07 07:59:51;;;;;;;1.70;1.30;;;19.20;59.30;18.90;102383.00;;;;4987780;28;20049;-74
2021/06/07 08:02:17;;;;;;;3.17;1.20;;;19.20;58.00;19.00;102395.00;;;;4983426;28;20050;-74
2021/06/07 08:04:44;;;;;;;3.80;1.60;;;19.80;58.90;19.00;102392.00;;;;4997990;28;20551;-71
2021/06/07 08:07:10;;;;;;;2.92;1.40;;;19.40;58.30;19.10;102381.00;;;;5016618;28;20041;-70
2021/06/07 08:09:37;;;;;;;3.47;2.07;;;19.40;58.30;19.30;102387.00;;;;5015301;28;20042;-74
2021/06/07 08:12:05;;;;;;;4.28;1.70;;;19.60;57.90;19.30;102390.00;;;;5017753;28;20104;-74
2021/06/07 08:14:31;;;;;;;2.60;1.50;;;19.70;57.90;19.50;102386.00;;;;4996790;28;20041;-71
2021/06/07 08:16:58;;;;;;;4.20;1.60;;;19.80;57.70;19.70;102394.00;;;;4971999;28;20093;-72
2021/06/07 08:19:25;;;;;;;2.95;1.60;;;20.00;57.10;19.70;102396.00;;;;4985381;28;20292;-72
2021/06/07 08:21:52;;;;;;;6.15;1.40;;;20.00;57.90;19.80;102387.00;;;;4970199;28;20034;-71
2021/06/07 08:24:19;;;;;;;3.67;1.10;;;20.50;57.20;19.90;102386.00;;;;4993715;28;20132;-72
2021/06/07 08:26:46;;;;;;;3.28;1.48;;;20.20;56.50;19.90;102388.00;;;;4996995;28;20107;-73
2021/06/07 08:29:14;;;;;;;3.13;1.30;;;20.20;56.00;19.90;102377.00;;;;5015268;28;20128;-73
2021/06/07 08:31:40;;;;;;;4.47;1.63;;;20.30;56.00;20.00;102392.00;;;;4992774;28;21608;-72
2021/06/07 08:34:06;;;;;;;2.60;1.50;;;20.30;55.70;20.20;102382.00;;;;5014770;28;20050;-72
2021/06/07 08:36:33;;;;;;;2.63;1.70;;;20.50;55.40;20.30;102384.00;;;;5008355;28;20054;-72
2021/06/07 08:38:59;;;;;;;3.15;1.63;;;20.60;53.30;20.30;102375.00;;;;4974558;28;20623;-72
2021/06/07 08:41:26;;;;;;;2.65;1.35;;;20.60;56.00;20.50;102392.00;;;;4982315;28;20054;-72
2021/06/07 08:43:52;;;;;;;4.13;2.00;;;20.80;55.60;20.50;102384.00;;;;4968486;28;20504;-71
2021/06/07 08:46:18;;;;;;;3.47;1.73;;;20.80;54.50;20.40;102385.00;;;;4993432;28;20470;-72
2021/06/07 08:48:45;;;;;;;3.20;1.67;;;20.80;55.10;20.20;102393.00;;;;4994215;28;20092;-74
2021/06/07 08:51:11;;;;;;;;;;;20.60;53.70;19.90;102391.00;;;;5007545;28;20053;-75
2021/06/07 08:53:38;;;;;;;3.83;1.40;;;20.40;49.10;20.00;102393.00;;;;5014172;28;19936;-73
2021/06/07 08:56:04;;;;;;;2.45;1.25;;;20.50;53.80;20.10;102392.00;;;;5005065;28;20042;-71
2021/06/07 08:58:30;;;;;;;2.30;1.73;;;20.50;54.00;20.20;102389.00;;;;4999414;28;20044;-72
2021/06/07 09:00:57;;;;;;;4.80;1.90;;;20.50;53.90;20.50;102392.00;;;;5022152;28;20056;-73
2021/06/07 09:03:31;;;;;;;5.45;1.80;;;20.70;54.10;20.50;102387.00;;;;5019791;28;20318;-74
2021/06/07 09:06:01;;;;;;;3.03;1.45;;;20.80;53.80;20.60;102378.00;;;;5003127;28;20124;-72
2021/06/07 09:08:34;;;;;;;3.95;1.92;;;20.90;53.80;20.70;102376.00;;;;5001715;28;20511;-73
2021/06/07 09:11:18;;;;;;;4.53;1.95;;;21.10;53.20;20.80;102376.00;;;;5013761;28;20038;-73
2021/06/07 09:13:45;;;;;;;5.07;1.20;;;21.10;52.70;20.80;102378.00;;;;5013524;28;20042;-73
2021/06/07 09:16:12;;;;;;;2.30;1.80;;;21.10;52.20;20.70;102385.00;;;;5017104;28;20057;-72
2021/06/07 09:18:47;;;;;;;3.17;1.83;;;21.10;52.60;20.80;102390.00;;;;4997375;28;20117;-73
2021/06/07 09:21:24;;;;;;;2.53;1.40;;;21.20;52.40;21.00;102390.00;;;;4999809;28;20129;-73
2021/06/07 09:24:04;;;;;;;2.72;1.35;;;21.30;52.40;21.10;102389.00;;;;5004583;28;20125;-74
2021/06/07 09:26:42;;;;;;;4.55;1.40;;;21.50;51.00;21.30;102390.00;;;;5000264;28;20120;-71
2021/06/07 09:29:24;;;;;;;2.67;1.80;;;21.60;51.70;21.40;102392.00;;;;5020400;28;20184;-73
2021/06/07 09:31:54;;;;;;;3.33;1.48;;;21.70;51.00;21.20;102399.00;;;;5019914;28;20057;-72
2021/06/07 09:34:34;;;;;;;2.42;1.60;;;21.60;50.50;21.20;102394.00;;;;4980822;28;20425;-76
2021/06/07 09:37:09;;;;;;;3.83;1.55;;;21.70;50.40;21.40;102399.00;;;;4973143;28;20046;-77
2021/06/07 09:39:37;;;;;;;3.15;1.65;;;21.80;48.40;21.50;102392.00;;;;4987146;28;20054;-75
2021/06/07 09:42:10;;;;;;;3.33;1.50;;;21.80;50.30;21.60;102393.00;;;;4969165;28;20042;-72
2021/06/07 09:44:48;;;;;;;2.97;1.92;;;21.90;50.50;21.60;102392.00;;;;5002610;28;20050;-71
2021/06/07 09:47:28;;;;;;;4.53;1.73;;;22.00;50.10;21.70;102393.00;;;;5018007;28;20049;-72
2021/06/07 09:50:07;;;;;;;2.17;1.40;;;22.10;49.80;21.80;102394.00;;;;5021122;28;20045;-72
2021/06/07 09:52:55;;;;;;;2.58;1.75;;;22.10;50.30;21.80;102386.00;;;;5018218;28;20129;-77
2021/06/07 09:55:25;;;;;;;6.97;3.58;;;22.20;44.90;21.60;102395.00;;;;4987443;28;20050;-72
2021/06/07 09:58:05;;;;;;;3.67;1.45;;;22.10;49.80;21.80;102387.00;;;;5006456;28;20060;-74
2021/06/07 10:00:49;;;;;;;3.15;1.55;;;22.20;48.30;21.80;102393.00;;;;5020284;28;20049;-73
2021/06/07 10:03:28;;;;;;;3.83;1.40;;;22.20;49.80;21.70;102398.00;;;;5020189;28;20072;-71
2021/06/07 10:06:04;;;;;;;2.55;1.65;;;22.20;49.70;21.90;102390.00;;;;5022492;28;20628;-72
2021/06/07 10:08:46;;;;;;;8.82;6.85;;;22.30;49.40;22.00;102399.00;;;;5018673;28;20103;-71
2021/06/07 10:11:27;;;;;;;7.35;3.35;;;22.40;46.00;22.00;102402.00;;;;5000364;28;20912;-74
2021/06/07 10:14:15;;;;;;;3.33;1.75;;;22.40;48.80;21.90;102394.00;;;;4996045;28;20128;-75
2021/06/07 10:17:01;;;;;;;2.17;1.52;;;22.40;48.50;22.20;102388.00;;;;5020387;28;20061;-74
2021/06/07 10:22:01;;;;;;;3.05;1.75;;;22.70;49.00;22.60;102382.00;;;;5022317;28;20037;-73
2021/06/07 10:24:27;;;;;;;4.30;1.70;;;22.90;48.70;22.70;102386.00;;;;5020052;28;20037;-72
2021/06/07 10:26:53;;;;;;;2.28;1.52;;;23.00;49.10;22.80;102392.00;;;;4980466;28;20077;-73
2021/06/07 10:29:20;;;;;;;2.65;1.77;;;23.10;47.50;22.50;102386.00;;;;4998550;28;20050;-72
2021/06/07 10:31:47;;;;;;;2.53;1.55;;;23.00;47.30;22.30;102393.00;;;;5019959;28;20160;-72
2021/06/07 10:34:13;;;;;;;2.40;1.40;;;22.80;47.40;22.50;102390.00;;;;5015951;28;20098;-72
2021/06/07 10:36:49;;;;;;;2.50;1.48;;;22.80;47.20;22.60;102390.00;;;;5001118;28;20069;-72
2021/06/07 10:39:19;;;;;;;2.25;1.40;;;22.90;43.80;22.70;102402.00;;;;4999350;28;20046;-72
2021/06/07 10:41:56;;;;;;;3.95;1.20;;;23.00;47.10;22.80;102388.00;;;;5001862;28;20076;-72
2021/06/07 10:44:48;;;;;;;3.50;1.30;;;23.20;43.60;23.00;102386.00;;;;4998791;28;20042;-73
2021/06/07 10:47:23;;;;;;;1.50;1.20;;;23.30;46.60;23.00;102378.00;;;;4996690;28;20496;-73
2021/06/07 10:50:04;;;;;;;2.63;1.13;;;23.40;45.60;23.00;102376.00;;;;4998296;28;20552;-73
2021/06/07 10:52:51;;;;;;;1.33;1.15;;;23.40;45.40;23.00;102377.00;;;;4999812;28;20057;-74
2021/06/07 10:55:40;;;;;;;3.65;1.45;;;23.40;45.20;23.10;102391.00;;;;5017427;28;20046;-73
2021/06/07 10:58:15;;;;;;;2.03;1.60;;;23.50;44.30;22.90;102372.00;;;;4998490;28;20049;-72